createdAt,value
2018-12-20T00:02:23.206Z,24.37
2018-12-20T00:05:27.837Z,23.23
2018-12-20T00:08:32.543Z,22.60
2018-12-20T00:11:37.554Z,23.30
2018-12-20T00:14:42.445Z,23.33
2018-12-20T00:17:49.817Z,24.00
2018-12-20T00:20:54.586Z,23.93
2018-12-20T00:23:59.185Z,24.83
2018-12-20T00:27:03.739Z,24.63
2018-12-20T00:30:08.529Z,23.07
2018-12-20T00:33:14.509Z,25.30
2018-12-20T00:36:19.172Z,24.10
2018-12-20T00:39:23.974Z,23.40
2018-12-20T00:42:28.671Z,22.40
2018-12-20T00:45:33.386Z,23.17
2018-12-20T00:48:37.942Z,23.50
2018-12-20T00:51:42.754Z,23.40
2018-12-20T00:54:47.443Z,23.60
2018-12-20T00:57:52.069Z,23.47
2018-12-20T01:00:57.075Z,23.60
2018-12-20T01:04:01.693Z,24.57
2018-12-20T01:07:12.534Z,23.97
2018-12-20T01:10:17.033Z,24.87
2018-12-20T01:13:21.658Z,24.90
2018-12-20T01:16:26.475Z,25.30
2018-12-20T01:19:31.242Z,23.87
2018-12-20T01:22:35.959Z,24.43
2018-12-20T01:25:40.590Z,23.37
2018-12-20T01:28:45.134Z,23.77
2018-12-20T01:31:49.850Z,25.20
2018-12-20T01:34:54.549Z,26.17
2018-12-20T01:37:59.192Z,28.60
2018-12-20T01:41:03.802Z,26.27
2018-12-20T01:44:08.449Z,25.07
2018-12-20T01:47:13.167Z,24.27
2018-12-20T01:50:17.823Z,26.83
2018-12-20T01:53:22.583Z,25.50
2018-12-20T01:56:27.202Z,25.43
2018-12-20T01:59:31.822Z,26.10
2018-12-20T02:02:36.850Z,25.60
2018-12-20T02:05:41.605Z,26.27
2018-12-20T02:08:46.200Z,26.13
2018-12-20T02:11:50.892Z,25.87
2018-12-20T02:15:01.597Z,25.93
2018-12-20T02:18:02.085Z,26.70
2018-12-20T02:21:06.831Z,26.07
2018-12-20T02:24:11.591Z,24.87
2018-12-20T02:27:16.354Z,26.70
2018-12-20T02:30:21.238Z,24.50
2018-12-20T02:33:26.051Z,26.03
2018-12-20T02:36:30.771Z,25.07
2018-12-20T02:39:35.599Z,26.53
2018-12-20T02:42:40.358Z,25.33
2018-12-20T02:45:44.940Z,26.50
2018-12-20T02:48:49.505Z,25.63
2018-12-20T02:51:54.217Z,25.53
2018-12-20T02:54:58.954Z,25.57
2018-12-20T02:58:03.940Z,24.63
2018-12-20T03:01:08.868Z,24.63
2018-12-20T03:04:13.514Z,25.27
2018-12-20T03:07:18.354Z,24.67
2018-12-20T03:10:23.043Z,24.13
2018-12-20T03:13:29.680Z,25.93
2018-12-20T03:16:34.686Z,25.87
2018-12-20T03:19:39.564Z,24.53
2018-12-20T03:22:44.408Z,24.97
2018-12-20T03:25:49.106Z,24.83
2018-12-20T03:28:53.633Z,24.43
2018-12-20T03:31:58.348Z,24.00
2018-12-20T03:35:03.055Z,23.23
2018-12-20T03:38:07.650Z,23.70
2018-12-20T03:41:12.407Z,23.30
2018-12-20T03:44:17.263Z,22.70
2018-12-20T03:47:22.089Z,23.23
2018-12-20T03:50:26.807Z,22.47
2018-12-20T03:53:31.491Z,22.27
2018-12-20T03:56:36.199Z,22.63
2018-12-20T03:59:41.552Z,23.23
2018-12-20T04:02:46.378Z,23.50
2018-12-20T04:05:51.398Z,22.47
2018-12-20T04:08:56.193Z,22.93
2018-12-20T04:12:00.839Z,24.10
2018-12-20T04:15:05.741Z,24.10
2018-12-20T04:18:10.442Z,24.57
2018-12-20T04:21:15.052Z,24.83
2018-12-20T04:24:19.696Z,23.70
2018-12-20T04:27:24.216Z,26.20
2018-12-20T04:30:28.928Z,24.23
2018-12-20T04:33:33.574Z,25.13
2018-12-20T04:36:38.683Z,25.50
2018-12-20T04:39:43.458Z,25.67
2018-12-20T04:42:48.100Z,25.63
2018-12-20T04:45:52.992Z,25.13
2018-12-20T04:48:57.811Z,27.67
2018-12-20T04:52:02.736Z,29.33
2018-12-20T04:55:07.624Z,29.47
2018-12-20T04:58:12.404Z,26.90
2018-12-20T05:01:17.068Z,34.00
2018-12-20T05:04:21.767Z,28.23
2018-12-20T05:07:26.431Z,28.20
2018-12-20T05:10:31.027Z,28.23
2018-12-20T05:13:35.689Z,27.17
2018-12-20T05:16:40.513Z,27.60
2018-12-20T05:19:46.317Z,29.40
2018-12-20T05:22:51.051Z,27.00
2018-12-20T05:25:55.829Z,29.43
2018-12-20T05:29:00.485Z,29.27
2018-12-20T05:32:05.168Z,30.30
2018-12-20T05:35:10.166Z,30.43
2018-12-20T05:38:15.168Z,33.33
2018-12-20T05:41:19.869Z,42.73
2018-12-20T05:44:24.412Z,35.03
2018-12-20T05:47:28.896Z,36.73
2018-12-20T05:50:33.490Z,49.93
2018-12-20T05:53:38.317Z,47.23
2018-12-20T05:56:43.096Z,40.20
2018-12-20T05:59:47.851Z,39.83
2018-12-20T06:02:52.525Z,38.87
2018-12-20T06:05:57.317Z,37.23
2018-12-20T06:09:02.249Z,36.40
2018-12-20T06:12:07.068Z,42.13
2018-12-20T06:15:11.747Z,41.30
2018-12-20T06:18:16.733Z,38.37
2018-12-20T06:21:21.576Z,39.77
2018-12-20T06:24:26.210Z,38.17
2018-12-20T06:27:30.858Z,40.10
2018-12-20T06:30:35.424Z,42.10
2018-12-20T06:33:40.066Z,44.13
2018-12-20T06:36:44.710Z,38.87
2018-12-20T06:39:49.302Z,38.67
2018-12-20T06:42:53.912Z,38.30
2018-12-20T06:45:58.601Z,35.67
2018-12-20T06:49:03.278Z,36.47
2018-12-20T06:52:07.919Z,35.47
2018-12-20T06:55:12.504Z,38.60
2018-12-20T06:58:17.124Z,30.30
2018-12-20T07:01:21.677Z,33.77
2018-12-20T07:04:26.207Z,41.33
2018-12-20T07:07:30.665Z,42.57
2018-12-20T07:10:35.362Z,37.07
2018-12-20T07:13:39.851Z,38.67
2018-12-20T07:16:44.475Z,39.33
2018-12-20T07:19:49.066Z,48.73
2018-12-20T07:22:53.898Z,45.43
2018-12-20T07:25:58.533Z,43.83
2018-12-20T07:29:03.185Z,45.97
2018-12-20T07:32:07.715Z,46.40
2018-12-20T07:35:12.280Z,47.13
2018-12-20T07:38:17.723Z,48.13
2018-12-20T07:41:22.310Z,52.43
2018-12-20T07:44:27.021Z,52.17
2018-12-20T07:47:31.624Z,57.03
2018-12-20T07:50:36.226Z,55.93
2018-12-20T07:53:40.830Z,57.73
2018-12-20T07:56:45.428Z,56.10
2018-12-20T07:59:49.960Z,56.30
2018-12-20T08:02:54.538Z,55.63
2018-12-20T08:05:59.085Z,56.13
2018-12-20T08:09:04.585Z,56.30
2018-12-20T08:12:09.135Z,58.00
2018-12-20T08:15:13.810Z,55.40
2018-12-20T08:18:18.429Z,56.57
2018-12-20T08:21:22.955Z,52.27
2018-12-20T08:24:27.551Z,50.07
2018-12-20T08:27:32.941Z,50.77
2018-12-20T08:30:37.541Z,51.27
2018-12-20T08:33:42.134Z,51.17
2018-12-20T08:36:46.763Z,51.63
2018-12-20T08:39:51.448Z,51.57
2018-12-20T08:42:56.331Z,55.13
2018-12-20T08:46:00.989Z,56.87
2018-12-20T08:49:05.699Z,52.67
2018-12-20T08:52:10.289Z,55.43
2018-12-20T08:55:14.991Z,56.97
2018-12-20T08:58:19.561Z,47.53
2018-12-20T09:01:24.178Z,54.00
2018-12-20T09:04:28.783Z,55.20
2018-12-20T09:07:33.362Z,61.30
2018-12-20T09:10:37.870Z,57.20
2018-12-20T09:13:42.447Z,51.47
2018-12-20T09:16:47.180Z,54.73
2018-12-20T09:19:51.960Z,57.30
2018-12-20T09:22:56.714Z,56.10
2018-12-20T09:26:01.308Z,59.13
2018-12-20T09:29:06.121Z,54.20
2018-12-20T09:32:10.741Z,61.77
2018-12-20T09:35:15.410Z,50.47
2018-12-20T09:38:19.952Z,45.20
2018-12-20T09:41:24.621Z,45.17
2018-12-20T09:44:29.395Z,43.47
2018-12-20T09:47:39.150Z,46.20
2018-12-20T09:50:43.795Z,46.10
2018-12-20T09:53:48.484Z,46.40
2018-12-20T09:56:54.255Z,41.93
2018-12-20T09:59:58.953Z,41.67
2018-12-20T10:03:03.632Z,41.43
2018-12-20T10:06:09.397Z,43.13
2018-12-20T10:09:13.875Z,39.97
2018-12-20T10:12:18.575Z,37.77
2018-12-20T10:15:23.166Z,40.70
2018-12-20T10:18:27.879Z,40.53
2018-12-20T10:21:32.549Z,42.47
2018-12-20T10:24:37.247Z,45.23
2018-12-20T10:27:42.037Z,44.83
2018-12-20T10:30:47.560Z,40.70
2018-12-20T10:33:52.175Z,41.47
2018-12-20T10:36:56.741Z,42.80
2018-12-20T10:40:01.338Z,37.83
2018-12-20T10:43:05.888Z,33.13
2018-12-20T10:46:10.482Z,35.33
2018-12-20T10:49:15.186Z,37.83
2018-12-20T10:52:19.881Z,39.17
2018-12-20T10:55:24.562Z,39.10
2018-12-20T10:58:29.351Z,36.90
2018-12-20T11:01:38.927Z,38.33
2018-12-20T11:04:48.623Z,40.93
2018-12-20T11:08:00.446Z,35.30
2018-12-20T11:11:09.407Z,38.77
2018-12-20T11:14:14.013Z,37.53
2018-12-20T11:17:18.678Z,36.87
2018-12-20T11:20:23.316Z,36.53
2018-12-20T11:23:27.941Z,37.50
2018-12-20T11:26:32.526Z,38.30
2018-12-20T11:29:37.177Z,37.87
2018-12-20T11:32:41.690Z,40.07
2018-12-20T11:35:46.245Z,36.60
2018-12-20T11:38:50.883Z,38.90
2018-12-20T11:41:55.613Z,42.37
2018-12-20T11:45:00.318Z,39.73
2018-12-20T11:48:04.933Z,39.47
2018-12-20T11:51:09.581Z,40.47
2018-12-20T11:54:14.370Z,38.87
2018-12-20T11:57:18.988Z,40.23
2018-12-20T12:00:23.537Z,42.60
2018-12-20T12:03:28.197Z,42.83
2018-12-20T12:06:32.815Z,43.73
2018-12-20T12:09:37.443Z,37.97
2018-12-20T12:12:42.134Z,41.23
2018-12-20T12:15:46.819Z,42.40
2018-12-20T12:18:51.497Z,34.87
2018-12-20T12:21:56.201Z,34.83
2018-12-20T12:25:00.755Z,34.67
2018-12-20T12:28:05.372Z,35.57
2018-12-20T12:31:10.003Z,37.70
2018-12-20T12:34:14.652Z,39.27
2018-12-20T12:37:19.425Z,37.47
2018-12-20T12:40:24.204Z,40.93
2018-12-20T12:43:28.873Z,40.27
2018-12-20T12:46:33.407Z,40.77
2018-12-20T12:49:38.205Z,39.03
2018-12-20T12:52:42.751Z,40.57
2018-12-20T12:55:47.491Z,40.77
2018-12-20T12:58:52.118Z,43.07
2018-12-20T13:01:56.782Z,38.67
2018-12-20T13:05:01.269Z,36.10
2018-12-20T13:08:05.982Z,44.73
2018-12-20T13:11:10.493Z,33.37
2018-12-20T13:14:15.068Z,34.90
2018-12-20T13:17:19.709Z,36.10
2018-12-20T13:20:24.278Z,37.00
2018-12-20T13:23:28.856Z,36.73
2018-12-20T13:26:33.527Z,33.67
2018-12-20T13:29:38.106Z,34.73
2018-12-20T13:32:42.734Z,36.73
2018-12-20T13:35:47.310Z,47.67
2018-12-20T13:38:51.886Z,36.03
2018-12-20T13:41:56.550Z,35.30
2018-12-20T13:45:01.142Z,34.13
2018-12-20T13:48:05.680Z,33.03
2018-12-20T13:51:10.342Z,32.83
2018-12-20T13:54:15.014Z,31.90
2018-12-20T13:57:19.637Z,31.73
2018-12-20T14:00:24.230Z,36.50
2018-12-20T14:03:28.779Z,41.53
2018-12-20T14:06:33.466Z,37.87
2018-12-20T14:09:37.935Z,36.40
2018-12-20T14:12:42.501Z,49.70
2018-12-20T14:15:47.145Z,50.13
2018-12-20T14:18:51.693Z,42.37
2018-12-20T14:21:56.319Z,52.30
2018-12-20T14:25:00.855Z,39.37
2018-12-20T14:28:05.388Z,38.63
2018-12-20T14:31:10.071Z,44.13
2018-12-20T14:34:14.621Z,37.57
2018-12-20T14:37:19.157Z,37.80
2018-12-20T14:40:23.773Z,44.57
2018-12-20T14:43:28.540Z,42.37
2018-12-20T14:46:33.139Z,39.40
2018-12-20T14:49:37.785Z,38.63
2018-12-20T14:52:42.458Z,42.13
2018-12-20T14:55:47.116Z,43.33
2018-12-20T14:58:51.678Z,40.13
2018-12-20T15:01:56.296Z,74.60
2018-12-20T15:05:00.850Z,47.60
2018-12-20T15:08:05.567Z,52.67
2018-12-20T15:11:10.223Z,48.50
2018-12-20T15:14:14.825Z,45.13
2018-12-20T15:17:19.393Z,44.40
2018-12-20T15:20:24.070Z,44.77
2018-12-20T15:23:28.707Z,42.70
2018-12-20T15:26:33.245Z,45.40
2018-12-20T15:29:37.815Z,37.60
2018-12-20T15:32:42.434Z,30.83
2018-12-20T15:35:47.237Z,28.40
2018-12-20T15:38:51.782Z,32.73
2018-12-20T15:41:56.397Z,79.13
2018-12-20T15:45:01.140Z,29.10
2018-12-20T15:48:05.897Z,29.10
2018-12-20T15:51:10.550Z,111.17
2018-12-20T15:54:15.223Z,77.73
2018-12-20T15:57:19.880Z,144.87
2018-12-20T16:00:24.767Z,37.13
2018-12-20T16:03:29.431Z,32.53
2018-12-20T16:06:34.036Z,35.00
2018-12-20T16:09:38.688Z,38.77
2018-12-20T16:12:43.383Z,33.47
2018-12-20T16:15:48.225Z,39.50
2018-12-20T16:18:52.898Z,37.00
2018-12-20T16:21:57.621Z,38.53
2018-12-20T16:25:02.267Z,37.27
2018-12-20T16:28:06.890Z,34.27
2018-12-20T16:31:11.603Z,36.80
2018-12-20T16:34:16.303Z,35.67
2018-12-20T16:37:20.903Z,33.97
2018-12-20T16:40:25.521Z,47.97
2018-12-20T16:43:30.098Z,55.67
2018-12-20T16:46:34.688Z,34.90
2018-12-20T16:49:39.263Z,36.27
2018-12-20T16:52:43.781Z,48.23
2018-12-20T16:55:50.265Z,49.23
2018-12-20T16:58:55.129Z,40.33
2018-12-20T17:01:59.745Z,39.63
2018-12-20T17:05:04.557Z,39.67
2018-12-20T17:08:09.121Z,44.50
2018-12-20T17:11:13.748Z,48.50
2018-12-20T17:14:18.419Z,47.20
2018-12-20T17:17:23.214Z,40.30
2018-12-20T17:20:27.822Z,52.90
2018-12-20T17:23:35.672Z,50.93
2018-12-20T17:26:39.078Z,40.57
2018-12-20T17:29:43.731Z,40.63
2018-12-20T17:32:48.509Z,43.53
2018-12-20T17:35:53.204Z,55.30
2018-12-20T17:38:59.169Z,51.07
2018-12-20T17:42:04.050Z,39.60
2018-12-20T17:45:09.352Z,48.60
2018-12-20T17:48:14.063Z,51.97
2018-12-20T17:51:18.629Z,50.77
2018-12-20T17:54:23.381Z,47.13
2018-12-20T17:57:28.210Z,41.63
2018-12-20T18:00:33.013Z,40.80
2018-12-20T18:03:37.699Z,42.47
2018-12-20T18:06:42.332Z,44.27
2018-12-20T18:09:47.005Z,38.97
2018-12-20T18:12:51.497Z,38.43
2018-12-20T18:15:56.360Z,37.57
2018-12-20T18:19:01.238Z,39.27
2018-12-20T18:22:05.962Z,38.90
2018-12-20T18:25:10.752Z,36.50
2018-12-20T18:28:16.573Z,36.47
2018-12-20T18:31:21.443Z,35.83
2018-12-20T18:34:26.065Z,39.33
2018-12-20T18:37:30.585Z,37.63
2018-12-20T18:40:35.202Z,52.40
2018-12-20T18:43:40.046Z,40.20
2018-12-20T18:46:44.658Z,37.93
2018-12-20T18:49:49.272Z,37.23
2018-12-20T18:52:53.968Z,37.80
2018-12-20T18:55:58.581Z,34.97
2018-12-20T18:59:03.226Z,40.50
2018-12-20T19:02:09.019Z,41.17
2018-12-20T19:05:13.698Z,42.97
2018-12-20T19:08:18.480Z,52.03
2018-12-20T19:11:23.258Z,42.67
2018-12-20T19:14:27.921Z,39.63
2018-12-20T19:17:32.448Z,40.03
2018-12-20T19:20:37.173Z,40.17
2018-12-20T19:23:41.859Z,40.60
2018-12-20T19:26:46.498Z,42.13
2018-12-20T19:29:51.152Z,45.57
2018-12-20T19:32:55.735Z,46.80
2018-12-20T19:36:00.474Z,39.67
2018-12-20T19:39:08.147Z,45.77
2018-12-20T19:42:15.289Z,40.37
2018-12-20T19:45:19.969Z,39.20
2018-12-20T19:48:24.588Z,45.77
2018-12-20T19:51:29.287Z,39.70
2018-12-20T19:54:34.055Z,41.53
2018-12-20T19:57:38.750Z,39.33
2018-12-20T20:00:43.321Z,43.07
2018-12-20T20:03:47.832Z,39.27
2018-12-20T20:06:52.464Z,40.20
2018-12-20T20:09:57.098Z,34.70
2018-12-20T20:13:01.759Z,34.20
2018-12-20T20:16:06.396Z,37.43
2018-12-20T20:19:10.901Z,46.07
2018-12-20T20:22:15.444Z,37.97
2018-12-20T20:25:20.058Z,40.37
2018-12-20T20:28:24.807Z,36.83
2018-12-20T20:31:29.587Z,40.97
2018-12-20T20:34:34.291Z,41.27
2018-12-20T20:37:38.857Z,39.97
2018-12-20T20:40:44.544Z,40.83
2018-12-20T20:43:49.128Z,39.63
2018-12-20T20:46:53.712Z,47.27
2018-12-20T20:49:58.325Z,47.83
2018-12-20T20:53:02.974Z,38.07
2018-12-20T20:56:07.587Z,39.33
2018-12-20T20:59:12.202Z,60.40
2018-12-20T21:02:16.836Z,41.83
2018-12-20T21:05:21.373Z,92.07
2018-12-20T21:08:25.991Z,42.63
2018-12-20T21:11:30.581Z,42.87
2018-12-20T21:14:35.294Z,47.67
2018-12-20T21:17:40.242Z,35.97
2018-12-20T21:20:44.723Z,38.53
2018-12-20T21:23:49.553Z,38.47
2018-12-20T21:26:54.109Z,44.93
2018-12-20T21:29:58.684Z,36.63
2018-12-20T21:33:03.246Z,36.87
2018-12-20T21:36:07.744Z,37.00
2018-12-20T21:39:12.319Z,37.00
2018-12-20T21:42:16.905Z,40.77
2018-12-20T21:45:23.000Z,37.37
2018-12-20T21:48:27.764Z,39.87
2018-12-20T21:51:32.574Z,43.73
2018-12-20T21:54:38.155Z,38.10
2018-12-20T21:57:42.862Z,36.93
2018-12-20T22:00:47.479Z,37.30
2018-12-20T22:03:52.182Z,35.23
2018-12-20T22:06:56.863Z,35.00
2018-12-20T22:10:01.531Z,37.93
2018-12-20T22:13:06.148Z,37.60
2018-12-20T22:16:10.634Z,40.00
2018-12-20T22:19:15.262Z,39.13
2018-12-20T22:22:19.934Z,38.47
2018-12-20T22:25:24.570Z,36.37
2018-12-20T22:28:29.186Z,39.80
2018-12-20T22:31:33.644Z,39.83
2018-12-20T22:34:38.258Z,38.00
2018-12-20T22:37:42.892Z,37.77
2018-12-20T22:40:47.505Z,38.73
2018-12-20T22:43:52.210Z,39.37
2018-12-20T22:46:56.795Z,36.73
2018-12-20T22:50:01.557Z,39.40
2018-12-20T22:53:07.249Z,37.87
2018-12-20T22:56:12.079Z,35.30
2018-12-20T22:59:16.621Z,36.13
2018-12-20T23:02:21.307Z,38.40
2018-12-20T23:05:25.929Z,38.93
2018-12-20T23:08:30.554Z,42.07
2018-12-20T23:11:35.084Z,37.37
2018-12-20T23:14:39.709Z,35.03
2018-12-20T23:17:44.373Z,35.30
2018-12-20T23:20:48.965Z,35.60
2018-12-20T23:23:53.570Z,33.80
2018-12-20T23:26:58.324Z,37.20
2018-12-20T23:30:02.998Z,36.40
2018-12-20T23:33:07.675Z,36.73
2018-12-20T23:36:12.352Z,36.23
2018-12-20T23:39:16.948Z,37.13
2018-12-20T23:42:21.742Z,37.90
2018-12-20T23:45:26.476Z,37.20
2018-12-20T23:48:31.042Z,36.33
2018-12-20T23:51:35.769Z,33.23
2018-12-20T23:54:40.437Z,32.57
2018-12-20T23:57:44.969Z,33.87
